<?xml version="1.0" encoding="UTF-8" standalone="no" ?><gpx xmlns="http://www.topografix.com/GPX/1/1" xmlns:gpxx="http://www.garmin.com/xmlschemas/GpxExtensions/v3" xmlns:wptx1="http://www.garmin.com/xmlschemas/WaypointExtension/v1" xmlns:gpxtpx="http://www.garmin.com/xmlschemas/TrackPointExtension/v1" creator="GuideVTT.com" version="1.1" xmlns:xsi="http://www.w3.org/2001/XMLSchema-instance" xsi:schemaLocation="http://www.topografix.com/GPX/1/1 http://www.topografix.com/GPX/1/1/gpx.xsd http://www.garmin.com/xmlschemas/GpxExtensions/v3 http://www8.garmin.com/xmlschemas/GpxExtensionsv3.xsd http://www.garmin.com/xmlschemas/WaypointExtension/v1 http://www8.garmin.com/xmlschemas/WaypointExtensionv1.xsd http://www.garmin.com/xmlschemas/TrackPointExtension/v1 http://www.garmin.com/xmlschemas/TrackPointExtensionv1.xsd">
<metadata><link href="http://www.garmin.com"><text>Garmin International</text></link><time>2013-06-22T15:13:50Z</time></metadata>
<trk><name>tentlingen_buchekappeli_stursen.gpx</name><extensions><gpxx:TrackExtension><gpxx:DisplayColor>Cyan</gpxx:DisplayColor></gpxx:TrackExtension></extensions><trkseg>
<trkpt lat="46.77019100" lon="7.19688000"><ele></ele><time>2014-6-27T5:48:35Z</time></trkpt>
<trkpt lat="46.76995600" lon="7.19744200"><ele></ele><time>2014-6-27T5:48:38Z</time></trkpt>
<trkpt lat="46.76950600" lon="7.19803200"><ele></ele><time>2014-6-27T5:48:41Z</time></trkpt>
<trkpt lat="46.76859000" lon="7.19894200"><ele></ele><time>2014-6-27T5:48:44Z</time></trkpt>
<trkpt lat="46.76767100" lon="7.20019500"><ele></ele><time>2014-6-27T5:48:47Z</time></trkpt>
<trkpt lat="46.76685300" lon="7.20110900"><ele></ele><time>2014-6-27T5:48:50Z</time></trkpt>
<trkpt lat="46.76624500" lon="7.20148800"><ele></ele><time>2014-6-27T5:48:53Z</time></trkpt>
<trkpt lat="46.76544000" lon="7.20237200"><ele></ele><time>2014-6-27T5:48:56Z</time></trkpt>
<trkpt lat="46.76528300" lon="7.20237000"><ele></ele><time>2014-6-27T5:48:59Z</time></trkpt>
<trkpt lat="46.76502500" lon="7.20209100"><ele></ele><time>2014-6-27T5:49:2Z</time></trkpt>
<trkpt lat="46.76449700" lon="7.20206200"><ele></ele><time>2014-6-27T5:49:5Z</time></trkpt>
<trkpt lat="46.76350600" lon="7.20263500"><ele></ele><time>2014-6-27T5:49:8Z</time></trkpt>
<trkpt lat="46.76308300" lon="7.20285000"><ele></ele><time>2014-6-27T5:49:11Z</time></trkpt>
<trkpt lat="46.76241300" lon="7.20303600"><ele></ele><time>2014-6-27T5:49:14Z</time></trkpt>
<trkpt lat="46.76148800" lon="7.20337500"><ele></ele><time>2014-6-27T5:49:17Z</time></trkpt>
<trkpt lat="46.76119100" lon="7.20396000"><ele></ele><time>2014-6-27T5:49:20Z</time></trkpt>
<trkpt lat="46.76109100" lon="7.20433200"><ele></ele><time>2014-6-27T5:49:23Z</time></trkpt>
<trkpt lat="46.76062800" lon="7.20495500"><ele></ele><time>2014-6-27T5:49:26Z</time></trkpt>
<trkpt lat="46.76043700" lon="7.20504600"><ele></ele><time>2014-6-27T5:49:29Z</time></trkpt>
<trkpt lat="46.75978900" lon="7.20456700"><ele></ele><time>2014-6-27T5:49:32Z</time></trkpt>
<trkpt lat="46.75941900" lon="7.20459700"><ele></ele><time>2014-6-27T5:49:35Z</time></trkpt>
<trkpt lat="46.75890200" lon="7.20532700"><ele></ele><time>2014-6-27T5:49:38Z</time></trkpt>
<trkpt lat="46.75835000" lon="7.20537100"><ele></ele><time>2014-6-27T5:49:41Z</time></trkpt>
<trkpt lat="46.75786800" lon="7.20627100"><ele></ele><time>2014-6-27T5:49:44Z</time></trkpt>
<trkpt lat="46.75734200" lon="7.20677400"><ele></ele><time>2014-6-27T5:49:47Z</time></trkpt>
<trkpt lat="46.75680900" lon="7.20690000"><ele></ele><time>2014-6-27T5:49:50Z</time></trkpt>
<trkpt lat="46.75680800" lon="7.20717600"><ele></ele><time>2014-6-27T5:49:53Z</time></trkpt>
<trkpt lat="46.75747100" lon="7.20872100"><ele></ele><time>2014-6-27T5:49:56Z</time></trkpt>
<trkpt lat="46.75614700" lon="7.20850800"><ele></ele><time>2014-6-27T5:49:59Z</time></trkpt>
<trkpt lat="46.75549000" lon="7.20897700"><ele></ele><time>2014-6-27T5:50:2Z</time></trkpt>
<trkpt lat="46.75495900" lon="7.20984900"><ele></ele><time>2014-6-27T5:50:5Z</time></trkpt>
<trkpt lat="46.75428400" lon="7.21021000"><ele></ele><time>2014-6-27T5:50:8Z</time></trkpt>
<trkpt lat="46.75189100" lon="7.21068200"><ele></ele><time>2014-6-27T5:50:11Z</time></trkpt>
<trkpt lat="46.75141300" lon="7.21126400"><ele></ele><time>2014-6-27T5:50:14Z</time></trkpt>
<trkpt lat="46.75118000" lon="7.21179500"><ele></ele><time>2014-6-27T5:50:17Z</time></trkpt>
<trkpt lat="46.75096900" lon="7.21356600"><ele></ele><time>2014-6-27T5:50:20Z</time></trkpt>
<trkpt lat="46.75077500" lon="7.21452400"><ele></ele><time>2014-6-27T5:50:23Z</time></trkpt>
<trkpt lat="46.75042400" lon="7.21510800"><ele></ele><time>2014-6-27T5:50:26Z</time></trkpt>
<trkpt lat="46.75004500" lon="7.21541800"><ele></ele><time>2014-6-27T5:50:29Z</time></trkpt>
<trkpt lat="46.74991900" lon="7.21564200"><ele></ele><time>2014-6-27T5:50:32Z</time></trkpt>
<trkpt lat="46.75004500" lon="7.21720100"><ele></ele><time>2014-6-27T5:50:35Z</time></trkpt>
<trkpt lat="46.74993100" lon="7.21756200"><ele></ele><time>2014-6-27T5:50:38Z</time></trkpt>
<trkpt lat="46.74894100" lon="7.21924200"><ele></ele><time>2014-6-27T5:50:41Z</time></trkpt>
<trkpt lat="46.74770100" lon="7.22085900"><ele></ele><time>2014-6-27T5:50:44Z</time></trkpt>
<trkpt lat="46.74737100" lon="7.22217100"><ele></ele><time>2014-6-27T5:50:47Z</time></trkpt>
<trkpt lat="46.74677000" lon="7.22303600"><ele></ele><time>2014-6-27T5:50:50Z</time></trkpt>
<trkpt lat="46.74615400" lon="7.22333800"><ele></ele><time>2014-6-27T5:50:53Z</time></trkpt>
<trkpt lat="46.74543700" lon="7.22355700"><ele></ele><time>2014-6-27T5:50:56Z</time></trkpt>
<trkpt lat="46.74431000" lon="7.22353500"><ele></ele><time>2014-6-27T5:50:59Z</time></trkpt>
<trkpt lat="46.74405900" lon="7.22331600"><ele></ele><time>2014-6-27T5:51:2Z</time></trkpt>
<trkpt lat="46.74332800" lon="7.22176400"><ele></ele><time>2014-6-27T5:51:5Z</time></trkpt>
<trkpt lat="46.74312900" lon="7.22150800"><ele></ele><time>2014-6-27T5:51:8Z</time></trkpt>
<trkpt lat="46.74260700" lon="7.22335600"><ele></ele><time>2014-6-27T5:51:11Z</time></trkpt>
<trkpt lat="46.74239700" lon="7.22446800"><ele></ele><time>2014-6-27T5:51:14Z</time></trkpt>
<trkpt lat="46.74182900" lon="7.22634300"><ele></ele><time>2014-6-27T5:51:17Z</time></trkpt>
<trkpt lat="46.74149900" lon="7.22680200"><ele></ele><time>2014-6-27T5:51:20Z</time></trkpt>
<trkpt lat="46.74108000" lon="7.22716000"><ele></ele><time>2014-6-27T5:51:23Z</time></trkpt>
<trkpt lat="46.74062100" lon="7.22701700"><ele></ele><time>2014-6-27T5:51:26Z</time></trkpt>
<trkpt lat="46.74032500" lon="7.22706500"><ele></ele><time>2014-6-27T5:51:29Z</time></trkpt>
<trkpt lat="46.73880800" lon="7.22803900"><ele></ele><time>2014-6-27T5:51:32Z</time></trkpt>
<trkpt lat="46.73769000" lon="7.22926800"><ele></ele><time>2014-6-27T5:51:35Z</time></trkpt>
<trkpt lat="46.73707000" lon="7.23038000"><ele></ele><time>2014-6-27T5:51:38Z</time></trkpt>
<trkpt lat="46.73604700" lon="7.23127300"><ele></ele><time>2014-6-27T5:51:41Z</time></trkpt>
<trkpt lat="46.73548200" lon="7.23254800"><ele></ele><time>2014-6-27T5:51:44Z</time></trkpt>
<trkpt lat="46.73535200" lon="7.23301300"><ele></ele><time>2014-6-27T5:51:47Z</time></trkpt>
<trkpt lat="46.73520400" lon="7.23300400"><ele></ele><time>2014-6-27T5:51:50Z</time></trkpt>
<trkpt lat="46.73463800" lon="7.23368200"><ele></ele><time>2014-6-27T5:51:53Z</time></trkpt>
<trkpt lat="46.73464300" lon="7.23424500"><ele></ele><time>2014-6-27T5:51:56Z</time></trkpt>
<trkpt lat="46.73492900" lon="7.23566900"><ele></ele><time>2014-6-27T5:51:59Z</time></trkpt>
<trkpt lat="46.73513500" lon="7.23636700"><ele></ele><time>2014-6-27T5:52:2Z</time></trkpt>
<trkpt lat="46.73524700" lon="7.23651900"><ele></ele><time>2014-6-27T5:52:5Z</time></trkpt>
<trkpt lat="46.73524500" lon="7.23766300"><ele></ele><time>2014-6-27T5:52:8Z</time></trkpt>
<trkpt lat="46.73515600" lon="7.23965100"><ele></ele><time>2014-6-27T5:52:11Z</time></trkpt>
<trkpt lat="46.73500200" lon="7.24061800"><ele></ele><time>2014-6-27T5:52:14Z</time></trkpt>
<trkpt lat="46.73512300" lon="7.24117700"><ele></ele><time>2014-6-27T5:52:17Z</time></trkpt>
<trkpt lat="46.73518000" lon="7.24182400"><ele></ele><time>2014-6-27T5:52:20Z</time></trkpt>
<trkpt lat="46.73509300" lon="7.24399000"><ele></ele><time>2014-6-27T5:52:23Z</time></trkpt>
<trkpt lat="46.73491600" lon="7.24480900"><ele></ele><time>2014-6-27T5:52:26Z</time></trkpt>
<trkpt lat="46.73452300" lon="7.24575200"><ele></ele><time>2014-6-27T5:52:29Z</time></trkpt>
<trkpt lat="46.73378000" lon="7.24577600"><ele></ele><time>2014-6-27T5:52:32Z</time></trkpt>
<trkpt lat="46.73339300" lon="7.24611600"><ele></ele><time>2014-6-27T5:52:35Z</time></trkpt>
<trkpt lat="46.73325800" lon="7.24669200"><ele></ele><time>2014-6-27T5:52:38Z</time></trkpt>
<trkpt lat="46.73287900" lon="7.24667700"><ele></ele><time>2014-6-27T5:52:41Z</time></trkpt>
<trkpt lat="46.73176600" lon="7.24620600"><ele></ele><time>2014-6-27T5:52:44Z</time></trkpt>
<trkpt lat="46.73035000" lon="7.24527000"><ele></ele><time>2014-6-27T5:52:47Z</time></trkpt>
<trkpt lat="46.72947000" lon="7.24508900"><ele></ele><time>2014-6-27T5:52:50Z</time></trkpt>
<trkpt lat="46.72825000" lon="7.24522200"><ele></ele><time>2014-6-27T5:52:53Z</time></trkpt>
<trkpt lat="46.72639800" lon="7.24580300"><ele></ele><time>2014-6-27T5:52:56Z</time></trkpt>
<trkpt lat="46.72510800" lon="7.24586000"><ele></ele><time>2014-6-27T5:52:59Z</time></trkpt>
<trkpt lat="46.72437800" lon="7.24574500"><ele></ele><time>2014-6-27T5:53:2Z</time></trkpt>
<trkpt lat="46.72335200" lon="7.24585100"><ele></ele><time>2014-6-27T5:53:5Z</time></trkpt>
<trkpt lat="46.72274000" lon="7.24580000"><ele></ele><time>2014-6-27T5:53:8Z</time></trkpt>
<trkpt lat="46.72214900" lon="7.24602100"><ele></ele><time>2014-6-27T5:53:11Z</time></trkpt>
<trkpt lat="46.72103300" lon="7.24563100"><ele></ele><time>2014-6-27T5:53:14Z</time></trkpt>
<trkpt lat="46.72095600" lon="7.24574400"><ele></ele><time>2014-6-27T5:53:17Z</time></trkpt>
<trkpt lat="46.71992500" lon="7.24573800"><ele></ele><time>2014-6-27T5:53:20Z</time></trkpt>
<trkpt lat="46.71951800" lon="7.24498600"><ele></ele><time>2014-6-27T5:53:23Z</time></trkpt>
<trkpt lat="46.71912100" lon="7.24472200"><ele></ele><time>2014-6-27T5:53:26Z</time></trkpt>
<trkpt lat="46.71893400" lon="7.24466500"><ele></ele><time>2014-6-27T5:53:29Z</time></trkpt>
<trkpt lat="46.71888100" lon="7.24474200"><ele></ele><time>2014-6-27T5:53:32Z</time></trkpt>
<trkpt lat="46.71912800" lon="7.24547500"><ele></ele><time>2014-6-27T5:53:35Z</time></trkpt>
<trkpt lat="46.71926400" lon="7.24637300"><ele></ele><time>2014-6-27T5:53:38Z</time></trkpt>
<trkpt lat="46.71996900" lon="7.24698700"><ele></ele><time>2014-6-27T5:53:41Z</time></trkpt>
<trkpt lat="46.71973300" lon="7.24708800"><ele></ele><time>2014-6-27T5:53:44Z</time></trkpt>
<trkpt lat="46.71953500" lon="7.24694000"><ele></ele><time>2014-6-27T5:53:47Z</time></trkpt>
<trkpt lat="46.71913400" lon="7.24708100"><ele></ele><time>2014-6-27T5:53:50Z</time></trkpt>
<trkpt lat="46.71912200" lon="7.24739700"><ele></ele><time>2014-6-27T5:53:53Z</time></trkpt>
<trkpt lat="46.71891500" lon="7.24758000"><ele></ele><time>2014-6-27T5:53:56Z</time></trkpt>
<trkpt lat="46.71892200" lon="7.24792300"><ele></ele><time>2014-6-27T5:53:59Z</time></trkpt>
<trkpt lat="46.71908200" lon="7.24812000"><ele></ele><time>2014-6-27T5:54:2Z</time></trkpt>
<trkpt lat="46.71925500" lon="7.24813300"><ele></ele><time>2014-6-27T5:54:5Z</time></trkpt>
<trkpt lat="46.71940000" lon="7.24842700"><ele></ele><time>2014-6-27T5:54:8Z</time></trkpt>
<trkpt lat="46.71966400" lon="7.24865300"><ele></ele><time>2014-6-27T5:54:11Z</time></trkpt>
<trkpt lat="46.72055400" lon="7.24918500"><ele></ele><time>2014-6-27T5:54:14Z</time></trkpt>
<trkpt lat="46.72124600" lon="7.24941200"><ele></ele><time>2014-6-27T5:54:17Z</time></trkpt>
<trkpt lat="46.72160800" lon="7.24961500"><ele></ele><time>2014-6-27T5:54:20Z</time></trkpt>
<trkpt lat="46.72168700" lon="7.24971200"><ele></ele><time>2014-6-27T5:54:23Z</time></trkpt>
<trkpt lat="46.72169600" lon="7.24981300"><ele></ele><time>2014-6-27T5:54:26Z</time></trkpt>
<trkpt lat="46.72151400" lon="7.24996900"><ele></ele><time>2014-6-27T5:54:29Z</time></trkpt>
<trkpt lat="46.72167400" lon="7.25020700"><ele></ele><time>2014-6-27T5:54:32Z</time></trkpt>
<trkpt lat="46.72159100" lon="7.25040900"><ele></ele><time>2014-6-27T5:54:35Z</time></trkpt>
<trkpt lat="46.72168600" lon="7.25062200"><ele></ele><time>2014-6-27T5:54:38Z</time></trkpt>
<trkpt lat="46.72236500" lon="7.25132900"><ele></ele><time>2014-6-27T5:54:41Z</time></trkpt>
<trkpt lat="46.72259800" lon="7.25195300"><ele></ele><time>2014-6-27T5:54:44Z</time></trkpt>
<trkpt lat="46.72269600" lon="7.25252300"><ele></ele><time>2014-6-27T5:54:47Z</time></trkpt>
<trkpt lat="46.72295600" lon="7.25292300"><ele></ele><time>2014-6-27T5:54:50Z</time></trkpt>
<trkpt lat="46.72345200" lon="7.25329200"><ele></ele><time>2014-6-27T5:54:53Z</time></trkpt>
<trkpt lat="46.72364900" lon="7.25379200"><ele></ele><time>2014-6-27T5:54:56Z</time></trkpt>
<trkpt lat="46.72391900" lon="7.25639200"><ele></ele><time>2014-6-27T5:54:59Z</time></trkpt>
<trkpt lat="46.72408500" lon="7.25676100"><ele></ele><time>2014-6-27T5:55:2Z</time></trkpt>
<trkpt lat="46.72427700" lon="7.25707300"><ele></ele><time>2014-6-27T5:55:5Z</time></trkpt>
<trkpt lat="46.72470100" lon="7.25731600"><ele></ele><time>2014-6-27T5:55:8Z</time></trkpt>
<trkpt lat="46.72504100" lon="7.25767000"><ele></ele><time>2014-6-27T5:55:11Z</time></trkpt>
<trkpt lat="46.72536400" lon="7.25814600"><ele></ele><time>2014-6-27T5:55:14Z</time></trkpt>
<trkpt lat="46.72550500" lon="7.25858900"><ele></ele><time>2014-6-27T5:55:17Z</time></trkpt>
<trkpt lat="46.72576400" lon="7.25849500"><ele></ele><time>2014-6-27T5:55:20Z</time></trkpt>
<trkpt lat="46.72624400" lon="7.25869400"><ele></ele><time>2014-6-27T5:55:23Z</time></trkpt>
<trkpt lat="46.72656500" lon="7.25893000"><ele></ele><time>2014-6-27T5:55:26Z</time></trkpt>
<trkpt lat="46.72683500" lon="7.25982400"><ele></ele><time>2014-6-27T5:55:29Z</time></trkpt>
<trkpt lat="46.72709400" lon="7.26009800"><ele></ele><time>2014-6-27T5:55:32Z</time></trkpt>
<trkpt lat="46.72712900" lon="7.26042200"><ele></ele><time>2014-6-27T5:55:35Z</time></trkpt>
<trkpt lat="46.72749400" lon="7.26099100"><ele></ele><time>2014-6-27T5:55:38Z</time></trkpt>
<trkpt lat="46.72775800" lon="7.26186100"><ele></ele><time>2014-6-27T5:55:41Z</time></trkpt>
<trkpt lat="46.72832300" lon="7.26207700"><ele></ele><time>2014-6-27T5:55:44Z</time></trkpt>
<trkpt lat="46.72881600" lon="7.26253000"><ele></ele><time>2014-6-27T5:55:47Z</time></trkpt>
<trkpt lat="46.72893500" lon="7.26276600"><ele></ele><time>2014-6-27T5:55:50Z</time></trkpt>
<trkpt lat="46.72942400" lon="7.26394500"><ele></ele><time>2014-6-27T5:55:53Z</time></trkpt>
<trkpt lat="46.72951400" lon="7.26466700"><ele></ele><time>2014-6-27T5:55:56Z</time></trkpt>
<trkpt lat="46.72977600" lon="7.26521300"><ele></ele><time>2014-6-27T5:55:59Z</time></trkpt>
<trkpt lat="46.72986400" lon="7.26562500"><ele></ele><time>2014-6-27T5:56:2Z</time></trkpt>
<trkpt lat="46.72987700" lon="7.26602900"><ele></ele><time>2014-6-27T5:56:5Z</time></trkpt>
<trkpt lat="46.73005600" lon="7.26592900"><ele></ele><time>2014-6-27T5:56:8Z</time></trkpt>
<trkpt lat="46.73019500" lon="7.26620800"><ele></ele><time>2014-6-27T5:56:11Z</time></trkpt>
<trkpt lat="46.73021800" lon="7.26586800"><ele></ele><time>2014-6-27T5:56:14Z</time></trkpt>
<trkpt lat="46.73044300" lon="7.26722100"><ele></ele><time>2014-6-27T5:56:17Z</time></trkpt>
<trkpt lat="46.73040600" lon="7.26807300"><ele></ele><time>2014-6-27T5:56:20Z</time></trkpt>
<trkpt lat="46.73007800" lon="7.26895000"><ele></ele><time>2014-6-27T5:56:23Z</time></trkpt>
<trkpt lat="46.72936000" lon="7.27015200"><ele></ele><time>2014-6-27T5:56:26Z</time></trkpt>
<trkpt lat="46.72926800" lon="7.27095800"><ele></ele><time>2014-6-27T5:56:29Z</time></trkpt>
<trkpt lat="46.72894400" lon="7.27117000"><ele></ele><time>2014-6-27T5:56:32Z</time></trkpt>
<trkpt lat="46.72868400" lon="7.27154200"><ele></ele><time>2014-6-27T5:56:35Z</time></trkpt>
<trkpt lat="46.72852000" lon="7.27202600"><ele></ele><time>2014-6-27T5:56:38Z</time></trkpt>
<trkpt lat="46.72860000" lon="7.27238500"><ele></ele><time>2014-6-27T5:56:41Z</time></trkpt>
<trkpt lat="46.72853600" lon="7.27296600"><ele></ele><time>2014-6-27T5:56:44Z</time></trkpt>
<trkpt lat="46.72858500" lon="7.27339600"><ele></ele><time>2014-6-27T5:56:47Z</time></trkpt>
<trkpt lat="46.72904500" lon="7.27440000"><ele></ele><time>2014-6-27T5:56:50Z</time></trkpt>
<trkpt lat="46.72961400" lon="7.27628900"><ele></ele><time>2014-6-27T5:56:53Z</time></trkpt>
<trkpt lat="46.72965100" lon="7.27707100"><ele></ele><time>2014-6-27T5:56:56Z</time></trkpt>
<trkpt lat="46.72980400" lon="7.27844200"><ele></ele><time>2014-6-27T5:56:59Z</time></trkpt>
<trkpt lat="46.72969500" lon="7.27907400"><ele></ele><time>2014-6-27T5:57:2Z</time></trkpt>
<trkpt lat="46.72941300" lon="7.27954200"><ele></ele><time>2014-6-27T5:57:5Z</time></trkpt>
<trkpt lat="46.72955800" lon="7.28010700"><ele></ele><time>2014-6-27T5:57:8Z</time></trkpt>
<trkpt lat="46.72988800" lon="7.28017900"><ele></ele><time>2014-6-27T5:57:11Z</time></trkpt>
<trkpt lat="46.73031000" lon="7.28052700"><ele></ele><time>2014-6-27T5:57:14Z</time></trkpt>
<trkpt lat="46.73054200" lon="7.28114400"><ele></ele><time>2014-6-27T5:57:17Z</time></trkpt>
<trkpt lat="46.73055600" lon="7.28155800"><ele></ele><time>2014-6-27T5:57:20Z</time></trkpt>
<trkpt lat="46.73071600" lon="7.28195600"><ele></ele><time>2014-6-27T5:57:23Z</time></trkpt>
<trkpt lat="46.73123900" lon="7.28228300"><ele></ele><time>2014-6-27T5:57:26Z</time></trkpt>
<trkpt lat="46.73259500" lon="7.28438000"><ele></ele><time>2014-6-27T5:57:29Z</time></trkpt>
<trkpt lat="46.73299200" lon="7.28457000"><ele></ele><time>2014-6-27T5:57:32Z</time></trkpt>
<trkpt lat="46.73321500" lon="7.28456600"><ele></ele><time>2014-6-27T5:57:35Z</time></trkpt>
<trkpt lat="46.73361100" lon="7.28472700"><ele></ele><time>2014-6-27T5:57:38Z</time></trkpt>
<trkpt lat="46.73374800" lon="7.28466800"><ele></ele><time>2014-6-27T5:57:41Z</time></trkpt>
<trkpt lat="46.73420000" lon="7.28559100"><ele></ele><time>2014-6-27T5:57:44Z</time></trkpt>
<trkpt lat="46.73427800" lon="7.28655300"><ele></ele><time>2014-6-27T5:57:47Z</time></trkpt>
<trkpt lat="46.73409600" lon="7.28682300"><ele></ele><time>2014-6-27T5:57:50Z</time></trkpt>
<trkpt lat="46.73372600" lon="7.28712100"><ele></ele><time>2014-6-27T5:57:53Z</time></trkpt>
<trkpt lat="46.73324600" lon="7.28775900"><ele></ele><time>2014-6-27T5:57:56Z</time></trkpt>
<trkpt lat="46.73295100" lon="7.28788300"><ele></ele><time>2014-6-27T5:57:59Z</time></trkpt>
<trkpt lat="46.73261800" lon="7.28771600"><ele></ele><time>2014-6-27T5:58:2Z</time></trkpt>
<trkpt lat="46.73275400" lon="7.28795700"><ele></ele><time>2014-6-27T5:58:5Z</time></trkpt>
<trkpt lat="46.73264500" lon="7.28809100"><ele></ele><time>2014-6-27T5:58:8Z</time></trkpt>
<trkpt lat="46.73213000" lon="7.28775900"><ele></ele><time>2014-6-27T5:58:11Z</time></trkpt>
<trkpt lat="46.73171000" lon="7.28706000"><ele></ele><time>2014-6-27T5:58:14Z</time></trkpt>
<trkpt lat="46.73156700" lon="7.28720400"><ele></ele><time>2014-6-27T5:58:17Z</time></trkpt>
<trkpt lat="46.73215000" lon="7.28889300"><ele></ele><time>2014-6-27T5:58:20Z</time></trkpt>
<trkpt lat="46.73223400" lon="7.28939100"><ele></ele><time>2014-6-27T5:58:23Z</time></trkpt>
<trkpt lat="46.73251900" lon="7.28960100"><ele></ele><time>2014-6-27T5:58:26Z</time></trkpt>
<trkpt lat="46.73381400" lon="7.28924300"><ele></ele><time>2014-6-27T5:58:29Z</time></trkpt>
<trkpt lat="46.73623600" lon="7.28815800"><ele></ele><time>2014-6-27T5:58:32Z</time></trkpt>
<trkpt lat="46.73812400" lon="7.28813000"><ele></ele><time>2014-6-27T5:58:35Z</time></trkpt>
<trkpt lat="46.73868800" lon="7.28777800"><ele></ele><time>2014-6-27T5:58:38Z</time></trkpt>
<trkpt lat="46.73930700" lon="7.28763000"><ele></ele><time>2014-6-27T5:58:41Z</time></trkpt>
<trkpt lat="46.73977000" lon="7.28703300"><ele></ele><time>2014-6-27T5:58:44Z</time></trkpt>
<trkpt lat="46.74071500" lon="7.28613100"><ele></ele><time>2014-6-27T5:58:47Z</time></trkpt>
<trkpt lat="46.74153600" lon="7.28520100"><ele></ele><time>2014-6-27T5:58:50Z</time></trkpt>
<trkpt lat="46.74192000" lon="7.28537500"><ele></ele><time>2014-6-27T5:58:53Z</time></trkpt>
<trkpt lat="46.74210900" lon="7.28502500"><ele></ele><time>2014-6-27T5:58:56Z</time></trkpt>
<trkpt lat="46.74233100" lon="7.28483100"><ele></ele><time>2014-6-27T5:58:59Z</time></trkpt>
<trkpt lat="46.74263200" lon="7.28473800"><ele></ele><time>2014-6-27T5:59:2Z</time></trkpt>
<trkpt lat="46.74343600" lon="7.28492100"><ele></ele><time>2014-6-27T5:59:5Z</time></trkpt>
<trkpt lat="46.74404300" lon="7.28553400"><ele></ele><time>2014-6-27T5:59:8Z</time></trkpt>
<trkpt lat="46.74428500" lon="7.28617700"><ele></ele><time>2014-6-27T5:59:11Z</time></trkpt>
<trkpt lat="46.74455600" lon="7.28777700"><ele></ele><time>2014-6-27T5:59:14Z</time></trkpt>
<trkpt lat="46.74475400" lon="7.28826200"><ele></ele><time>2014-6-27T5:59:17Z</time></trkpt>
<trkpt lat="46.74684800" lon="7.29014600"><ele></ele><time>2014-6-27T5:59:20Z</time></trkpt>
<trkpt lat="46.74768800" lon="7.29106800"><ele></ele><time>2014-6-27T5:59:23Z</time></trkpt>
<trkpt lat="46.74871500" lon="7.29203700"><ele></ele><time>2014-6-27T5:59:26Z</time></trkpt>
<trkpt lat="46.74960600" lon="7.29228800"><ele></ele><time>2014-6-27T5:59:29Z</time></trkpt>
<trkpt lat="46.74981400" lon="7.29256800"><ele></ele><time>2014-6-27T5:59:32Z</time></trkpt>
<trkpt lat="46.75090700" lon="7.29350600"><ele></ele><time>2014-6-27T5:59:35Z</time></trkpt>
<trkpt lat="46.75128200" lon="7.29375100"><ele></ele><time>2014-6-27T5:59:38Z</time></trkpt>
<trkpt lat="46.75317400" lon="7.29386500"><ele></ele><time>2014-6-27T5:59:41Z</time></trkpt>
<trkpt lat="46.75336400" lon="7.29371500"><ele></ele><time>2014-6-27T5:59:44Z</time></trkpt>
<trkpt lat="46.75359200" lon="7.29326400"><ele></ele><time>2014-6-27T5:59:47Z</time></trkpt>
<trkpt lat="46.75418800" lon="7.29281600"><ele></ele><time>2014-6-27T5:59:50Z</time></trkpt>
<trkpt lat="46.75404400" lon="7.29238100"><ele></ele><time>2014-6-27T5:59:53Z</time></trkpt>
<trkpt lat="46.75419000" lon="7.29172600"><ele></ele><time>2014-6-27T5:59:56Z</time></trkpt>
<trkpt lat="46.75424400" lon="7.29085400"><ele></ele><time>2014-6-27T5:59:59Z</time></trkpt>
<trkpt lat="46.75414300" lon="7.29065400"><ele></ele><time>2014-6-27T6:0:2Z</time></trkpt>
<trkpt lat="46.75387500" lon="7.29061200"><ele></ele><time>2014-6-27T6:0:5Z</time></trkpt>
<trkpt lat="46.75355100" lon="7.29203000"><ele></ele><time>2014-6-27T6:0:8Z</time></trkpt>
<trkpt lat="46.75323300" lon="7.29231800"><ele></ele><time>2014-6-27T6:0:11Z</time></trkpt>
<trkpt lat="46.75301100" lon="7.29220000"><ele></ele><time>2014-6-27T6:0:14Z</time></trkpt>
<trkpt lat="46.75291200" lon="7.29191100"><ele></ele><time>2014-6-27T6:0:17Z</time></trkpt>
<trkpt lat="46.75265000" lon="7.29150000"><ele></ele><time>2014-6-27T6:0:20Z</time></trkpt>
<trkpt lat="46.75189800" lon="7.28934200"><ele></ele><time>2014-6-27T6:0:23Z</time></trkpt>
<trkpt lat="46.75195900" lon="7.28897200"><ele></ele><time>2014-6-27T6:0:26Z</time></trkpt>
<trkpt lat="46.75180900" lon="7.28760800"><ele></ele><time>2014-6-27T6:0:29Z</time></trkpt>
<trkpt lat="46.75151800" lon="7.28689700"><ele></ele><time>2014-6-27T6:0:32Z</time></trkpt>
<trkpt lat="46.75132900" lon="7.28616800"><ele></ele><time>2014-6-27T6:0:35Z</time></trkpt>
<trkpt lat="46.75091900" lon="7.28535500"><ele></ele><time>2014-6-27T6:0:38Z</time></trkpt>
<trkpt lat="46.75067800" lon="7.28440700"><ele></ele><time>2014-6-27T6:0:41Z</time></trkpt>
<trkpt lat="46.75020900" lon="7.28360200"><ele></ele><time>2014-6-27T6:0:44Z</time></trkpt>
<trkpt lat="46.74977100" lon="7.28330900"><ele></ele><time>2014-6-27T6:0:47Z</time></trkpt>
<trkpt lat="46.74932600" lon="7.28263900"><ele></ele><time>2014-6-27T6:0:50Z</time></trkpt>
<trkpt lat="46.74910100" lon="7.28183100"><ele></ele><time>2014-6-27T6:0:53Z</time></trkpt>
<trkpt lat="46.74887500" lon="7.28143800"><ele></ele><time>2014-6-27T6:0:56Z</time></trkpt>
<trkpt lat="46.74840900" lon="7.28137400"><ele></ele><time>2014-6-27T6:0:59Z</time></trkpt>
<trkpt lat="46.74825900" lon="7.28105200"><ele></ele><time>2014-6-27T6:1:2Z</time></trkpt>
<trkpt lat="46.74771700" lon="7.27828700"><ele></ele><time>2014-6-27T6:1:5Z</time></trkpt>
<trkpt lat="46.74768800" lon="7.27797800"><ele></ele><time>2014-6-27T6:1:8Z</time></trkpt>
<trkpt lat="46.74778600" lon="7.27714300"><ele></ele><time>2014-6-27T6:1:11Z</time></trkpt>
<trkpt lat="46.74677400" lon="7.27493000"><ele></ele><time>2014-6-27T6:1:14Z</time></trkpt>
<trkpt lat="46.74614500" lon="7.27320100"><ele></ele><time>2014-6-27T6:1:17Z</time></trkpt>
<trkpt lat="46.74592500" lon="7.27235500"><ele></ele><time>2014-6-27T6:1:20Z</time></trkpt>
<trkpt lat="46.74592300" lon="7.27212700"><ele></ele><time>2014-6-27T6:1:23Z</time></trkpt>
<trkpt lat="46.74607200" lon="7.27180100"><ele></ele><time>2014-6-27T6:1:26Z</time></trkpt>
<trkpt lat="46.74582500" lon="7.27076500"><ele></ele><time>2014-6-27T6:1:29Z</time></trkpt>
<trkpt lat="46.74576500" lon="7.26913600"><ele></ele><time>2014-6-27T6:1:32Z</time></trkpt>
<trkpt lat="46.74602500" lon="7.26901600"><ele></ele><time>2014-6-27T6:1:35Z</time></trkpt>
<trkpt lat="46.74642400" lon="7.26903200"><ele></ele><time>2014-6-27T6:1:38Z</time></trkpt>
<trkpt lat="46.74659900" lon="7.26971600"><ele></ele><time>2014-6-27T6:1:41Z</time></trkpt>
<trkpt lat="46.74668600" lon="7.26977800"><ele></ele><time>2014-6-27T6:1:44Z</time></trkpt>
<trkpt lat="46.74760200" lon="7.26947400"><ele></ele><time>2014-6-27T6:1:47Z</time></trkpt>
<trkpt lat="46.74788000" lon="7.26915800"><ele></ele><time>2014-6-27T6:1:50Z</time></trkpt>
<trkpt lat="46.74811800" lon="7.26846300"><ele></ele><time>2014-6-27T6:1:53Z</time></trkpt>
<trkpt lat="46.74878000" lon="7.26546600"><ele></ele><time>2014-6-27T6:1:56Z</time></trkpt>
<trkpt lat="46.74889800" lon="7.26521200"><ele></ele><time>2014-6-27T6:1:59Z</time></trkpt>
<trkpt lat="46.74907500" lon="7.26499400"><ele></ele><time>2014-6-27T6:2:2Z</time></trkpt>
<trkpt lat="46.74921500" lon="7.26506100"><ele></ele><time>2014-6-27T6:2:5Z</time></trkpt>
<trkpt lat="46.74966500" lon="7.26596300"><ele></ele><time>2014-6-27T6:2:8Z</time></trkpt>
<trkpt lat="46.74988400" lon="7.26589200"><ele></ele><time>2014-6-27T6:2:11Z</time></trkpt>
<trkpt lat="46.75041800" lon="7.26457600"><ele></ele><time>2014-6-27T6:2:14Z</time></trkpt>
<trkpt lat="46.75110500" lon="7.26401100"><ele></ele><time>2014-6-27T6:2:17Z</time></trkpt>
<trkpt lat="46.75187700" lon="7.26398000"><ele></ele><time>2014-6-27T6:2:20Z</time></trkpt>
<trkpt lat="46.75211500" lon="7.26379300"><ele></ele><time>2014-6-27T6:2:23Z</time></trkpt>
<trkpt lat="46.75248000" lon="7.26323000"><ele></ele><time>2014-6-27T6:2:26Z</time></trkpt>
<trkpt lat="46.75272300" lon="7.26306700"><ele></ele><time>2014-6-27T6:2:29Z</time></trkpt>
<trkpt lat="46.75305400" lon="7.26320900"><ele></ele><time>2014-6-27T6:2:32Z</time></trkpt>
<trkpt lat="46.75326700" lon="7.26348000"><ele></ele><time>2014-6-27T6:2:35Z</time></trkpt>
<trkpt lat="46.75358800" lon="7.26408000"><ele></ele><time>2014-6-27T6:2:38Z</time></trkpt>
<trkpt lat="46.75383100" lon="7.26477900"><ele></ele><time>2014-6-27T6:2:41Z</time></trkpt>
<trkpt lat="46.75495200" lon="7.26631100"><ele></ele><time>2014-6-27T6:2:44Z</time></trkpt>
<trkpt lat="46.75486000" lon="7.26610100"><ele></ele><time>2014-6-27T6:2:47Z</time></trkpt>
<trkpt lat="46.75479100" lon="7.26623700"><ele></ele><time>2014-6-27T6:2:50Z</time></trkpt>
<trkpt lat="46.75486200" lon="7.26642300"><ele></ele><time>2014-6-27T6:2:53Z</time></trkpt>
<trkpt lat="46.75485600" lon="7.26635100"><ele></ele><time>2014-6-27T6:2:56Z</time></trkpt>
<trkpt lat="46.75497400" lon="7.26634500"><ele></ele><time>2014-6-27T6:2:59Z</time></trkpt>
<trkpt lat="46.75571500" lon="7.26671900"><ele></ele><time>2014-6-27T6:3:2Z</time></trkpt>
<trkpt lat="46.75676500" lon="7.26701800"><ele></ele><time>2014-6-27T6:3:5Z</time></trkpt>
<trkpt lat="46.75742900" lon="7.26765000"><ele></ele><time>2014-6-27T6:3:8Z</time></trkpt>
<trkpt lat="46.75854100" lon="7.26938200"><ele></ele><time>2014-6-27T6:3:11Z</time></trkpt>
<trkpt lat="46.75878200" lon="7.26962400"><ele></ele><time>2014-6-27T6:3:14Z</time></trkpt>
<trkpt lat="46.75907200" lon="7.27015800"><ele></ele><time>2014-6-27T6:3:17Z</time></trkpt>
<trkpt lat="46.75890500" lon="7.27106800"><ele></ele><time>2014-6-27T6:3:20Z</time></trkpt>
<trkpt lat="46.75893000" lon="7.27142500"><ele></ele><time>2014-6-27T6:3:23Z</time></trkpt>
<trkpt lat="46.75994300" lon="7.27310300"><ele></ele><time>2014-6-27T6:3:26Z</time></trkpt>
<trkpt lat="46.76018800" lon="7.27342500"><ele></ele><time>2014-6-27T6:3:29Z</time></trkpt>
<trkpt lat="46.76069500" lon="7.27352800"><ele></ele><time>2014-6-27T6:3:32Z</time></trkpt>
<trkpt lat="46.76085900" lon="7.27363500"><ele></ele><time>2014-6-27T6:3:35Z</time></trkpt>
<trkpt lat="46.76165900" lon="7.27388100"><ele></ele><time>2014-6-27T6:3:38Z</time></trkpt>
<trkpt lat="46.76183800" lon="7.27382000"><ele></ele><time>2014-6-27T6:3:41Z</time></trkpt>
<trkpt lat="46.76260700" lon="7.27258400"><ele></ele><time>2014-6-27T6:3:44Z</time></trkpt>
<trkpt lat="46.76262900" lon="7.27233100"><ele></ele><time>2014-6-27T6:3:47Z</time></trkpt>
<trkpt lat="46.76250900" lon="7.27217000"><ele></ele><time>2014-6-27T6:3:50Z</time></trkpt>
<trkpt lat="46.76200300" lon="7.27190600"><ele></ele><time>2014-6-27T6:3:53Z</time></trkpt>
<trkpt lat="46.76158400" lon="7.27202600"><ele></ele><time>2014-6-27T6:3:56Z</time></trkpt>
<trkpt lat="46.76096700" lon="7.27130000"><ele></ele><time>2014-6-27T6:3:59Z</time></trkpt>
<trkpt lat="46.76075900" lon="7.27091600"><ele></ele><time>2014-6-27T6:4:2Z</time></trkpt>
<trkpt lat="46.76021600" lon="7.26793600"><ele></ele><time>2014-6-27T6:4:5Z</time></trkpt>
<trkpt lat="46.76025700" lon="7.26713700"><ele></ele><time>2014-6-27T6:4:8Z</time></trkpt>
<trkpt lat="46.76039400" lon="7.26670300"><ele></ele><time>2014-6-27T6:4:11Z</time></trkpt>
<trkpt lat="46.76021400" lon="7.26629400"><ele></ele><time>2014-6-27T6:4:14Z</time></trkpt>
<trkpt lat="46.76094600" lon="7.26575200"><ele></ele><time>2014-6-27T6:4:17Z</time></trkpt>
<trkpt lat="46.76153200" lon="7.26390900"><ele></ele><time>2014-6-27T6:4:20Z</time></trkpt>
<trkpt lat="46.76177400" lon="7.26252100"><ele></ele><time>2014-6-27T6:4:23Z</time></trkpt>
<trkpt lat="46.76206600" lon="7.26168200"><ele></ele><time>2014-6-27T6:4:26Z</time></trkpt>
<trkpt lat="46.76237600" lon="7.26113600"><ele></ele><time>2014-6-27T6:4:29Z</time></trkpt>
<trkpt lat="46.76250100" lon="7.26101800"><ele></ele><time>2014-6-27T6:4:32Z</time></trkpt>
<trkpt lat="46.76280800" lon="7.26091800"><ele></ele><time>2014-6-27T6:4:35Z</time></trkpt>
<trkpt lat="46.76359300" lon="7.26097700"><ele></ele><time>2014-6-27T6:4:38Z</time></trkpt>
<trkpt lat="46.76412700" lon="7.26127800"><ele></ele><time>2014-6-27T6:4:41Z</time></trkpt>
<trkpt lat="46.76428400" lon="7.26162700"><ele></ele><time>2014-6-27T6:4:44Z</time></trkpt>
<trkpt lat="46.76437800" lon="7.26245200"><ele></ele><time>2014-6-27T6:4:47Z</time></trkpt>
<trkpt lat="46.76538700" lon="7.26340300"><ele></ele><time>2014-6-27T6:4:50Z</time></trkpt>
<trkpt lat="46.76582500" lon="7.26307000"><ele></ele><time>2014-6-27T6:4:53Z</time></trkpt>
<trkpt lat="46.76617500" lon="7.26301500"><ele></ele><time>2014-6-27T6:4:56Z</time></trkpt>
<trkpt lat="46.76620300" lon="7.26257500"><ele></ele><time>2014-6-27T6:4:59Z</time></trkpt>
<trkpt lat="46.76607300" lon="7.26211100"><ele></ele><time>2014-6-27T6:5:2Z</time></trkpt>
<trkpt lat="46.76631000" lon="7.26185600"><ele></ele><time>2014-6-27T6:5:5Z</time></trkpt>
<trkpt lat="46.76631000" lon="7.26153400"><ele></ele><time>2014-6-27T6:5:8Z</time></trkpt>
<trkpt lat="46.76535300" lon="7.26010400"><ele></ele><time>2014-6-27T6:5:11Z</time></trkpt>
<trkpt lat="46.76481500" lon="7.25862100"><ele></ele><time>2014-6-27T6:5:14Z</time></trkpt>
<trkpt lat="46.76461100" lon="7.25789700"><ele></ele><time>2014-6-27T6:5:17Z</time></trkpt>
<trkpt lat="46.76400500" lon="7.25727300"><ele></ele><time>2014-6-27T6:5:20Z</time></trkpt>
<trkpt lat="46.76417800" lon="7.25682200"><ele></ele><time>2014-6-27T6:5:23Z</time></trkpt>
<trkpt lat="46.76435000" lon="7.25673600"><ele></ele><time>2014-6-27T6:5:26Z</time></trkpt>
<trkpt lat="46.76549500" lon="7.25692600"><ele></ele><time>2014-6-27T6:5:29Z</time></trkpt>
<trkpt lat="46.76658900" lon="7.25761600"><ele></ele><time>2014-6-27T6:5:32Z</time></trkpt>
<trkpt lat="46.76675200" lon="7.25762900"><ele></ele><time>2014-6-27T6:5:35Z</time></trkpt>
<trkpt lat="46.76727400" lon="7.25739500"><ele></ele><time>2014-6-27T6:5:38Z</time></trkpt>
<trkpt lat="46.76809600" lon="7.25679700"><ele></ele><time>2014-6-27T6:5:41Z</time></trkpt>
<trkpt lat="46.76836700" lon="7.25686100"><ele></ele><time>2014-6-27T6:5:44Z</time></trkpt>
<trkpt lat="46.76865100" lon="7.25713700"><ele></ele><time>2014-6-27T6:5:47Z</time></trkpt>
<trkpt lat="46.76883600" lon="7.25765700"><ele></ele><time>2014-6-27T6:5:50Z</time></trkpt>
<trkpt lat="46.76896900" lon="7.25945700"><ele></ele><time>2014-6-27T6:5:53Z</time></trkpt>
<trkpt lat="46.76931300" lon="7.26097800"><ele></ele><time>2014-6-27T6:5:56Z</time></trkpt>
<trkpt lat="46.76934900" lon="7.26111300"><ele></ele><time>2014-6-27T6:5:59Z</time></trkpt>
<trkpt lat="46.76986900" lon="7.26161700"><ele></ele><time>2014-6-27T6:6:2Z</time></trkpt>
<trkpt lat="46.77062200" lon="7.26175500"><ele></ele><time>2014-6-27T6:6:5Z</time></trkpt>
<trkpt lat="46.77101700" lon="7.26165100"><ele></ele><time>2014-6-27T6:6:8Z</time></trkpt>
<trkpt lat="46.77223000" lon="7.26087000"><ele></ele><time>2014-6-27T6:6:11Z</time></trkpt>
<trkpt lat="46.77345500" lon="7.25972500"><ele></ele><time>2014-6-27T6:6:14Z</time></trkpt>
<trkpt lat="46.77358500" lon="7.25921100"><ele></ele><time>2014-6-27T6:6:17Z</time></trkpt>
<trkpt lat="46.77349400" lon="7.25861900"><ele></ele><time>2014-6-27T6:6:20Z</time></trkpt>
<trkpt lat="46.77305500" lon="7.25709600"><ele></ele><time>2014-6-27T6:6:23Z</time></trkpt>
<trkpt lat="46.77301300" lon="7.25520800"><ele></ele><time>2014-6-27T6:6:26Z</time></trkpt>
<trkpt lat="46.77289400" lon="7.25459800"><ele></ele><time>2014-6-27T6:6:29Z</time></trkpt>
<trkpt lat="46.77309500" lon="7.25442600"><ele></ele><time>2014-6-27T6:6:32Z</time></trkpt>
<trkpt lat="46.77311900" lon="7.25402100"><ele></ele><time>2014-6-27T6:6:35Z</time></trkpt>
<trkpt lat="46.77242500" lon="7.25310000"><ele></ele><time>2014-6-27T6:6:38Z</time></trkpt>
<trkpt lat="46.77220000" lon="7.25256600"><ele></ele><time>2014-6-27T6:6:41Z</time></trkpt>
<trkpt lat="46.77184500" lon="7.25210200"><ele></ele><time>2014-6-27T6:6:44Z</time></trkpt>
<trkpt lat="46.77167200" lon="7.25087700"><ele></ele><time>2014-6-27T6:6:47Z</time></trkpt>
<trkpt lat="46.77159400" lon="7.24895300"><ele></ele><time>2014-6-27T6:6:50Z</time></trkpt>
<trkpt lat="46.77143900" lon="7.24750400"><ele></ele><time>2014-6-27T6:6:53Z</time></trkpt>
<trkpt lat="46.77095400" lon="7.24617900"><ele></ele><time>2014-6-27T6:6:56Z</time></trkpt>
<trkpt lat="46.77068500" lon="7.24577700"><ele></ele><time>2014-6-27T6:6:59Z</time></trkpt>
<trkpt lat="46.77027500" lon="7.24443000"><ele></ele><time>2014-6-27T6:7:2Z</time></trkpt>
<trkpt lat="46.76971900" lon="7.24372200"><ele></ele><time>2014-6-27T6:7:5Z</time></trkpt>
<trkpt lat="46.76968300" lon="7.24329200"><ele></ele><time>2014-6-27T6:7:8Z</time></trkpt>
<trkpt lat="46.76993300" lon="7.24231500"><ele></ele><time>2014-6-27T6:7:11Z</time></trkpt>
<trkpt lat="46.77023500" lon="7.24076900"><ele></ele><time>2014-6-27T6:7:14Z</time></trkpt>
<trkpt lat="46.77025100" lon="7.23976800"><ele></ele><time>2014-6-27T6:7:17Z</time></trkpt>
<trkpt lat="46.77138000" lon="7.23943900"><ele></ele><time>2014-6-27T6:7:20Z</time></trkpt>
<trkpt lat="46.77206500" lon="7.23956800"><ele></ele><time>2014-6-27T6:7:23Z</time></trkpt>
<trkpt lat="46.77232200" lon="7.23955600"><ele></ele><time>2014-6-27T6:7:26Z</time></trkpt>
<trkpt lat="46.77277000" lon="7.23937700"><ele></ele><time>2014-6-27T6:7:29Z</time></trkpt>
<trkpt lat="46.77308900" lon="7.23940600"><ele></ele><time>2014-6-27T6:7:32Z</time></trkpt>
<trkpt lat="46.77329800" lon="7.23954600"><ele></ele><time>2014-6-27T6:7:35Z</time></trkpt>
<trkpt lat="46.77360900" lon="7.23955200"><ele></ele><time>2014-6-27T6:7:38Z</time></trkpt>
<trkpt lat="46.77391600" lon="7.23943700"><ele></ele><time>2014-6-27T6:7:41Z</time></trkpt>
<trkpt lat="46.77529900" lon="7.23840400"><ele></ele><time>2014-6-27T6:7:44Z</time></trkpt>
<trkpt lat="46.77656300" lon="7.23859200"><ele></ele><time>2014-6-27T6:7:47Z</time></trkpt>
<trkpt lat="46.77756100" lon="7.23856200"><ele></ele><time>2014-6-27T6:7:50Z</time></trkpt>
<trkpt lat="46.77819700" lon="7.23853100"><ele></ele><time>2014-6-27T6:7:53Z</time></trkpt>
<trkpt lat="46.77891500" lon="7.23960400"><ele></ele><time>2014-6-27T6:7:56Z</time></trkpt>
<trkpt lat="46.77934600" lon="7.24111100"><ele></ele><time>2014-6-27T6:7:59Z</time></trkpt>
<trkpt lat="46.77967800" lon="7.24149300"><ele></ele><time>2014-6-27T6:8:2Z</time></trkpt>
<trkpt lat="46.78004700" lon="7.24155900"><ele></ele><time>2014-6-27T6:8:5Z</time></trkpt>
<trkpt lat="46.78038100" lon="7.24136100"><ele></ele><time>2014-6-27T6:8:8Z</time></trkpt>
<trkpt lat="46.78107100" lon="7.24049900"><ele></ele><time>2014-6-27T6:8:11Z</time></trkpt>
<trkpt lat="46.78134400" lon="7.23896400"><ele></ele><time>2014-6-27T6:8:14Z</time></trkpt>
<trkpt lat="46.78177500" lon="7.23809100"><ele></ele><time>2014-6-27T6:8:17Z</time></trkpt>
<trkpt lat="46.78194100" lon="7.23735900"><ele></ele><time>2014-6-27T6:8:20Z</time></trkpt>
<trkpt lat="46.78195300" lon="7.23686900"><ele></ele><time>2014-6-27T6:8:23Z</time></trkpt>
<trkpt lat="46.78187100" lon="7.23551300"><ele></ele><time>2014-6-27T6:8:26Z</time></trkpt>
<trkpt lat="46.78193100" lon="7.23514100"><ele></ele><time>2014-6-27T6:8:29Z</time></trkpt>
<trkpt lat="46.78050900" lon="7.23297700"><ele></ele><time>2014-6-27T6:8:32Z</time></trkpt>
<trkpt lat="46.78066700" lon="7.23246000"><ele></ele><time>2014-6-27T6:8:35Z</time></trkpt>
<trkpt lat="46.78096600" lon="7.23214800"><ele></ele><time>2014-6-27T6:8:38Z</time></trkpt>
<trkpt lat="46.78158300" lon="7.23140800"><ele></ele><time>2014-6-27T6:8:41Z</time></trkpt>
<trkpt lat="46.78163700" lon="7.23082700"><ele></ele><time>2014-6-27T6:8:44Z</time></trkpt>
<trkpt lat="46.78185100" lon="7.23061800"><ele></ele><time>2014-6-27T6:8:47Z</time></trkpt>
<trkpt lat="46.78453000" lon="7.22998400"><ele></ele><time>2014-6-27T6:8:50Z</time></trkpt>
<trkpt lat="46.78504200" lon="7.22980300"><ele></ele><time>2014-6-27T6:8:53Z</time></trkpt>
<trkpt lat="46.78546600" lon="7.23016700"><ele></ele><time>2014-6-27T6:8:56Z</time></trkpt>
<trkpt lat="46.78567200" lon="7.23022300"><ele></ele><time>2014-6-27T6:8:59Z</time></trkpt>
<trkpt lat="46.78607300" lon="7.23009700"><ele></ele><time>2014-6-27T6:9:2Z</time></trkpt>
<trkpt lat="46.78637900" lon="7.22988700"><ele></ele><time>2014-6-27T6:9:5Z</time></trkpt>
<trkpt lat="46.78656100" lon="7.22951300"><ele></ele><time>2014-6-27T6:9:8Z</time></trkpt>
<trkpt lat="46.78646000" lon="7.22913900"><ele></ele><time>2014-6-27T6:9:11Z</time></trkpt>
<trkpt lat="46.78653700" lon="7.22868500"><ele></ele><time>2014-6-27T6:9:14Z</time></trkpt>
<trkpt lat="46.78663300" lon="7.22864200"><ele></ele><time>2014-6-27T6:9:17Z</time></trkpt>
<trkpt lat="46.78701500" lon="7.22819700"><ele></ele><time>2014-6-27T6:9:20Z</time></trkpt>
<trkpt lat="46.78796700" lon="7.22748700"><ele></ele><time>2014-6-27T6:9:23Z</time></trkpt>
<trkpt lat="46.78812900" lon="7.22719400"><ele></ele><time>2014-6-27T6:9:26Z</time></trkpt>
<trkpt lat="46.78802700" lon="7.22680600"><ele></ele><time>2014-6-27T6:9:29Z</time></trkpt>
<trkpt lat="46.78715600" lon="7.22487400"><ele></ele><time>2014-6-27T6:9:32Z</time></trkpt>
<trkpt lat="46.78672000" lon="7.22437900"><ele></ele><time>2014-6-27T6:9:35Z</time></trkpt>
<trkpt lat="46.78578900" lon="7.22390200"><ele></ele><time>2014-6-27T6:9:38Z</time></trkpt>
<trkpt lat="46.78496600" lon="7.22319600"><ele></ele><time>2014-6-27T6:9:41Z</time></trkpt>
<trkpt lat="46.78482200" lon="7.22312800"><ele></ele><time>2014-6-27T6:9:44Z</time></trkpt>
<trkpt lat="46.78411100" lon="7.22316300"><ele></ele><time>2014-6-27T6:9:47Z</time></trkpt>
<trkpt lat="46.78402000" lon="7.22297400"><ele></ele><time>2014-6-27T6:9:50Z</time></trkpt>
<trkpt lat="46.78388500" lon="7.22213300"><ele></ele><time>2014-6-27T6:9:53Z</time></trkpt>
<trkpt lat="46.78361300" lon="7.22114700"><ele></ele><time>2014-6-27T6:9:56Z</time></trkpt>
<trkpt lat="46.78395900" lon="7.21720000"><ele></ele><time>2014-6-27T6:9:59Z</time></trkpt>
<trkpt lat="46.78417200" lon="7.21607400"><ele></ele><time>2014-6-27T6:10:2Z</time></trkpt>
<trkpt lat="46.78430800" lon="7.21576200"><ele></ele><time>2014-6-27T6:10:5Z</time></trkpt>
<trkpt lat="46.78434200" lon="7.21489400"><ele></ele><time>2014-6-27T6:10:8Z</time></trkpt>
<trkpt lat="46.78418900" lon="7.21444400"><ele></ele><time>2014-6-27T6:10:11Z</time></trkpt>
<trkpt lat="46.78403300" lon="7.21423800"><ele></ele><time>2014-6-27T6:10:14Z</time></trkpt>
<trkpt lat="46.78362300" lon="7.21423700"><ele></ele><time>2014-6-27T6:10:17Z</time></trkpt>
<trkpt lat="46.78306700" lon="7.21482400"><ele></ele><time>2014-6-27T6:10:20Z</time></trkpt>
<trkpt lat="46.78229800" lon="7.21501800"><ele></ele><time>2014-6-27T6:10:23Z</time></trkpt>
<trkpt lat="46.78175400" lon="7.21590800"><ele></ele><time>2014-6-27T6:10:26Z</time></trkpt>
<trkpt lat="46.78087900" lon="7.21638700"><ele></ele><time>2014-6-27T6:10:29Z</time></trkpt>
<trkpt lat="46.78043400" lon="7.21717200"><ele></ele><time>2014-6-27T6:10:32Z</time></trkpt>
<trkpt lat="46.78019400" lon="7.21723300"><ele></ele><time>2014-6-27T6:10:35Z</time></trkpt>
<trkpt lat="46.78011900" lon="7.21704800"><ele></ele><time>2014-6-27T6:10:38Z</time></trkpt>
<trkpt lat="46.78010500" lon="7.21600600"><ele></ele><time>2014-6-27T6:10:41Z</time></trkpt>
<trkpt lat="46.78031000" lon="7.21547200"><ele></ele><time>2014-6-27T6:10:44Z</time></trkpt>
<trkpt lat="46.78066000" lon="7.21519700"><ele></ele><time>2014-6-27T6:10:47Z</time></trkpt>
<trkpt lat="46.78110700" lon="7.21520100"><ele></ele><time>2014-6-27T6:10:50Z</time></trkpt>
<trkpt lat="46.78144600" lon="7.21468500"><ele></ele><time>2014-6-27T6:10:53Z</time></trkpt>
<trkpt lat="46.78156400" lon="7.21418800"><ele></ele><time>2014-6-27T6:10:56Z</time></trkpt>
<trkpt lat="46.78184300" lon="7.21373100"><ele></ele><time>2014-6-27T6:10:59Z</time></trkpt>
<trkpt lat="46.78221500" lon="7.21350500"><ele></ele><time>2014-6-27T6:11:2Z</time></trkpt>
<trkpt lat="46.78244200" lon="7.21319800"><ele></ele><time>2014-6-27T6:11:5Z</time></trkpt>
<trkpt lat="46.78261600" lon="7.21277600"><ele></ele><time>2014-6-27T6:11:8Z</time></trkpt>
<trkpt lat="46.78314400" lon="7.21165600"><ele></ele><time>2014-6-27T6:11:11Z</time></trkpt>
<trkpt lat="46.78339300" lon="7.21073300"><ele></ele><time>2014-6-27T6:11:14Z</time></trkpt>
<trkpt lat="46.78350800" lon="7.20983500"><ele></ele><time>2014-6-27T6:11:17Z</time></trkpt>
<trkpt lat="46.78368100" lon="7.20925200"><ele></ele><time>2014-6-27T6:11:20Z</time></trkpt>
<trkpt lat="46.78319400" lon="7.20873000"><ele></ele><time>2014-6-27T6:11:23Z</time></trkpt>
<trkpt lat="46.78298800" lon="7.20839000"><ele></ele><time>2014-6-27T6:11:26Z</time></trkpt>
<trkpt lat="46.78233500" lon="7.20787000"><ele></ele><time>2014-6-27T6:11:29Z</time></trkpt>
<trkpt lat="46.78206000" lon="7.20758700"><ele></ele><time>2014-6-27T6:11:32Z</time></trkpt>
<trkpt lat="46.78165800" lon="7.20747300"><ele></ele><time>2014-6-27T6:11:35Z</time></trkpt>
<trkpt lat="46.78127700" lon="7.20721200"><ele></ele><time>2014-6-27T6:11:38Z</time></trkpt>
<trkpt lat="46.77989700" lon="7.20683200"><ele></ele><time>2014-6-27T6:11:41Z</time></trkpt>
<trkpt lat="46.77857300" lon="7.20688400"><ele></ele><time>2014-6-27T6:11:44Z</time></trkpt>
<trkpt lat="46.77823300" lon="7.20669500"><ele></ele><time>2014-6-27T6:11:47Z</time></trkpt>
<trkpt lat="46.77794100" lon="7.20664600"><ele></ele><time>2014-6-27T6:11:50Z</time></trkpt>
<trkpt lat="46.77720400" lon="7.20709800"><ele></ele><time>2014-6-27T6:11:53Z</time></trkpt>
<trkpt lat="46.77672500" lon="7.20763200"><ele></ele><time>2014-6-27T6:11:56Z</time></trkpt>
<trkpt lat="46.77569200" lon="7.20804700"><ele></ele><time>2014-6-27T6:11:59Z</time></trkpt>
<trkpt lat="46.77500400" lon="7.20753400"><ele></ele><time>2014-6-27T6:12:2Z</time></trkpt>
<trkpt lat="46.77434400" lon="7.20747300"><ele></ele><time>2014-6-27T6:12:5Z</time></trkpt>
<trkpt lat="46.77392500" lon="7.20709600"><ele></ele><time>2014-6-27T6:12:8Z</time></trkpt>
<trkpt lat="46.77396600" lon="7.20696500"><ele></ele><time>2014-6-27T6:12:11Z</time></trkpt>
<trkpt lat="46.77426600" lon="7.20670000"><ele></ele><time>2014-6-27T6:12:14Z</time></trkpt>
<trkpt lat="46.77435000" lon="7.20623000"><ele></ele><time>2014-6-27T6:12:17Z</time></trkpt>
<trkpt lat="46.77379000" lon="7.20347700"><ele></ele><time>2014-6-27T6:12:20Z</time></trkpt>
<trkpt lat="46.77366200" lon="7.20306700"><ele></ele><time>2014-6-27T6:12:23Z</time></trkpt>
<trkpt lat="46.77019100" lon="7.19688000"><ele></ele><time>2014-6-27T6:12:26Z</time></trkpt>
</trkseg></trk></gpx>